createdAt,value
2017-02-03T00:00:46.789Z,0
2017-02-03T00:01:55.812Z,0
2017-02-03T00:03:05.257Z,0
2017-02-03T00:04:14.276Z,0
2017-02-03T00:05:23.303Z,0
2017-02-03T00:06:32.355Z,0
2017-02-03T00:07:41.382Z,0
2017-02-03T00:08:50.404Z,0
2017-02-03T00:09:59.425Z,0
2017-02-03T00:11:08.451Z,0
2017-02-03T00:12:18.338Z,0
2017-02-03T00:13:27.344Z,0
2017-02-03T00:14:36.760Z,0
2017-02-03T00:15:45.745Z,0
2017-02-03T00:16:54.727Z,0
2017-02-03T00:18:03.711Z,0
2017-02-03T00:19:12.703Z,0
2017-02-03T00:20:21.688Z,0
2017-02-03T00:21:31.140Z,0
2017-02-03T00:22:40.127Z,0
2017-02-03T00:23:49.188Z,0
2017-02-03T00:24:58.189Z,0
2017-02-03T00:26:07.609Z,0
2017-02-03T00:27:16.598Z,0
2017-02-03T00:28:25.592Z,0
2017-02-03T00:29:34.577Z,0
2017-02-03T00:30:43.566Z,0
2017-02-03T00:31:52.610Z,0
2017-02-03T00:33:01.611Z,0
2017-02-03T00:34:10.588Z,0
2017-02-03T00:35:19.581Z,0
2017-02-03T00:36:28.600Z,0
2017-02-03T00:37:37.585Z,0
2017-02-03T00:38:46.586Z,0
2017-02-03T00:39:55.584Z,0
2017-02-03T00:41:04.561Z,0
2017-02-03T00:42:13.562Z,0
2017-02-03T00:43:22.552Z,0
2017-02-03T00:44:31.558Z,0
2017-02-03T00:45:40.545Z,0
2017-02-03T00:46:49.540Z,0
2017-02-03T00:47:58.530Z,0
2017-02-03T00:49:07.521Z,0
2017-02-03T00:50:16.503Z,0
2017-02-03T00:51:25.491Z,0
2017-02-03T00:52:34.485Z,0
2017-02-03T00:53:43.487Z,0
2017-02-03T00:54:52.464Z,0
2017-02-03T00:56:01.459Z,0
2017-02-03T00:57:10.441Z,0
2017-02-03T00:58:19.435Z,0
2017-02-03T00:59:28.431Z,0
2017-02-03T01:00:37.844Z,0
2017-02-03T01:01:46.825Z,0
2017-02-03T01:02:55.810Z,0
2017-02-03T01:04:04.849Z,0
2017-02-03T01:05:13.835Z,0
2017-02-03T01:06:23.251Z,0
2017-02-03T01:07:32.754Z,0
2017-02-03T01:08:41.766Z,0
2017-02-03T01:09:50.766Z,0
2017-02-03T01:10:59.761Z,0
2017-02-03T01:12:09.174Z,0
2017-02-03T01:13:18.158Z,0
2017-02-03T01:14:27.155Z,0
2017-02-03T01:15:36.149Z,0
2017-02-03T01:16:45.144Z,0
2017-02-03T01:17:54.141Z,0
2017-02-03T01:19:03.132Z,0
2017-02-03T01:20:12.125Z,0
2017-02-03T01:21:21.120Z,0
2017-02-03T01:22:30.115Z,0
2017-02-03T01:23:39.107Z,0
2017-02-03T01:24:48.091Z,0
2017-02-03T01:25:57.080Z,0
2017-02-03T01:27:06.072Z,0
2017-02-03T01:28:15.075Z,0
2017-02-03T01:29:24.479Z,0
2017-02-03T01:30:33.462Z,0
2017-02-03T01:31:42.450Z,0
2017-02-03T01:32:51.447Z,0
2017-02-03T01:34:00.429Z,0
2017-02-03T01:35:09.424Z,0
2017-02-03T01:36:18.852Z,0
2017-02-03T01:37:27.846Z,0
2017-02-03T01:38:36.842Z,0
2017-02-03T01:39:45.843Z,0
2017-02-03T01:40:54.846Z,0
2017-02-03T01:42:03.850Z,0
2017-02-03T01:43:12.836Z,0
2017-02-03T01:44:21.866Z,0
2017-02-03T01:45:30.857Z,0
2017-02-03T01:46:40.272Z,0
2017-02-03T01:47:49.680Z,0
2017-02-03T01:48:58.671Z,0
2017-02-03T01:50:07.682Z,0
2017-02-03T01:51:16.674Z,0
2017-02-03T01:52:25.736Z,0
2017-02-03T01:53:34.738Z,0
2017-02-03T01:54:43.736Z,0
2017-02-03T01:55:52.723Z,0
2017-02-03T01:57:01.713Z,0
2017-02-03T01:58:10.700Z,0
2017-02-03T01:59:19.693Z,0
2017-02-03T02:00:28.682Z,0
2017-02-03T02:01:37.682Z,0
2017-02-03T02:02:47.125Z,0
2017-02-03T02:03:56.115Z,0
2017-02-03T02:05:05.117Z,0
2017-02-03T02:06:14.105Z,0
2017-02-03T02:07:23.101Z,0
2017-02-03T02:08:32.505Z,0
2017-02-03T02:09:41.494Z,0
2017-02-03T02:10:50.484Z,0
2017-02-03T02:11:59.483Z,0
2017-02-03T02:13:08.481Z,0
2017-02-03T02:14:17.863Z,0
2017-02-03T02:15:26.897Z,0
2017-02-03T02:16:35.881Z,0
2017-02-03T02:17:44.872Z,0
2017-02-03T02:18:53.863Z,0
2017-02-03T02:20:02.850Z,0
2017-02-03T02:21:11.834Z,0
2017-02-03T02:22:20.825Z,0
2017-02-03T02:23:29.834Z,0
2017-02-03T02:24:38.827Z,0
2017-02-03T02:25:47.826Z,0
2017-02-03T02:26:56.843Z,0
2017-02-03T02:28:05.839Z,0
2017-02-03T02:29:14.839Z,0
2017-02-03T02:30:23.838Z,0
2017-02-03T02:31:32.824Z,0
2017-02-03T02:32:41.831Z,0
2017-02-03T02:33:50.812Z,0
2017-02-03T02:34:59.816Z,0
2017-02-03T02:36:08.826Z,0
2017-02-03T02:37:17.816Z,0
2017-02-03T02:38:26.799Z,0
2017-02-03T02:39:35.792Z,0
2017-02-03T02:40:44.786Z,0
2017-02-03T02:41:53.784Z,0
2017-02-03T02:43:02.776Z,0
2017-02-03T02:44:11.824Z,0
2017-02-03T02:45:21.246Z,0
2017-02-03T02:46:30.232Z,0
2017-02-03T02:47:39.223Z,0
2017-02-03T02:48:48.211Z,0
2017-02-03T02:49:57.250Z,0
2017-02-03T02:51:06.241Z,0
2017-02-03T02:52:15.227Z,0
2017-02-03T02:53:24.205Z,0
2017-02-03T02:54:33.617Z,0
2017-02-03T02:55:42.611Z,0
2017-02-03T02:56:51.648Z,0
2017-02-03T02:58:00.644Z,0
2017-02-03T02:59:09.621Z,0
2017-02-03T03:00:18.636Z,0
2017-02-03T03:01:27.633Z,0
2017-02-03T03:02:36.617Z,0
2017-02-03T03:03:45.615Z,0
2017-02-03T03:04:54.623Z,0
2017-02-03T03:06:03.605Z,0
2017-02-03T03:07:12.592Z,0
2017-02-03T03:08:21.625Z,0
2017-02-03T03:09:31.018Z,0
2017-02-03T03:10:40.011Z,0
2017-02-03T03:11:48.997Z,0
2017-02-03T03:12:58.460Z,0
2017-02-03T03:14:07.457Z,0
2017-02-03T03:15:16.442Z,0
2017-02-03T03:16:25.427Z,0
2017-02-03T03:17:34.430Z,0
2017-02-03T03:18:43.418Z,0
2017-02-03T03:19:52.403Z,0
2017-02-03T03:21:01.389Z,0
2017-02-03T03:22:10.369Z,0
2017-02-03T03:23:19.778Z,0
2017-02-03T03:24:28.755Z,0
2017-02-03T03:25:37.752Z,0
2017-02-03T03:26:46.740Z,0
2017-02-03T03:27:55.717Z,0
2017-02-03T03:29:04.741Z,0
2017-02-03T03:30:13.738Z,0
2017-02-03T03:31:23.145Z,0
2017-02-03T03:32:32.147Z,0
2017-02-03T03:33:41.139Z,0
2017-02-03T03:34:50.126Z,0
2017-02-03T03:35:59.116Z,0
2017-02-03T03:37:08.121Z,0
2017-02-03T03:38:17.108Z,0
2017-02-03T03:39:26.124Z,0
2017-02-03T03:40:35.098Z,0
2017-02-03T03:41:44.101Z,0
2017-02-03T03:42:53.098Z,0
2017-02-03T03:44:02.088Z,0
2017-02-03T03:45:11.083Z,0
2017-02-03T03:46:20.080Z,0
2017-02-03T03:47:29.066Z,0
2017-02-03T03:48:38.456Z,0
2017-02-03T03:49:47.446Z,0
2017-02-03T03:50:56.427Z,0
2017-02-03T03:52:05.425Z,0
2017-02-03T03:53:14.408Z,0
2017-02-03T03:54:23.393Z,0
2017-02-03T03:55:32.396Z,0
2017-02-03T03:56:41.384Z,0
2017-02-03T03:57:50.371Z,0
2017-02-03T03:58:59.370Z,0
2017-02-03T04:00:08.365Z,0
2017-02-03T04:01:17.348Z,0
2017-02-03T04:02:26.373Z,0
2017-02-03T04:03:35.357Z,0
2017-02-03T04:04:44.757Z,0
2017-02-03T04:05:53.754Z,0
2017-02-03T04:07:02.740Z,0
2017-02-03T04:08:12.146Z,0
2017-02-03T04:09:21.139Z,0
2017-02-03T04:10:30.136Z,0
2017-02-03T04:11:39.123Z,0
2017-02-03T04:12:48.122Z,0
2017-02-03T04:13:57.106Z,0
2017-02-03T04:15:06.094Z,0
2017-02-03T04:16:15.089Z,0
2017-02-03T04:17:24.084Z,0
2017-02-03T04:18:33.080Z,0
2017-02-03T04:19:42.054Z,0
2017-02-03T04:20:51.048Z,0
2017-02-03T04:22:00.040Z,0
2017-02-03T04:23:09.043Z,0
2017-02-03T04:24:18.025Z,0
2017-02-03T04:25:27.007Z,0
2017-02-03T04:26:36.403Z,0
2017-02-03T04:27:45.395Z,0
2017-02-03T04:28:54.387Z,0
2017-02-03T04:30:03.374Z,0
2017-02-03T04:31:12.361Z,0
2017-02-03T04:32:21.750Z,0
2017-02-03T04:33:30.760Z,0
2017-02-03T04:34:39.753Z,0
2017-02-03T04:35:48.748Z,0
2017-02-03T04:36:57.732Z,0
2017-02-03T04:38:06.732Z,0
2017-02-03T04:39:15.717Z,0
2017-02-03T04:40:24.718Z,0
2017-02-03T04:41:33.715Z,0
2017-02-03T04:42:42.724Z,0
2017-02-03T04:43:51.711Z,0
2017-02-03T04:45:00.702Z,0
2017-02-03T04:46:09.695Z,0
2017-02-03T04:47:18.693Z,0
2017-02-03T04:48:27.685Z,0
2017-02-03T04:49:37.520Z,0
2017-02-03T04:50:46.515Z,0
2017-02-03T04:51:55.507Z,0
2017-02-03T04:53:04.485Z,0
2017-02-03T04:54:13.489Z,0
2017-02-03T04:55:22.480Z,0
2017-02-03T04:56:31.473Z,0
2017-02-03T04:57:40.453Z,0
2017-02-03T04:58:49.446Z,0
2017-02-03T04:59:58.441Z,0
2017-02-03T05:01:07.844Z,0
2017-02-03T05:02:16.846Z,0
2017-02-03T05:03:25.835Z,0
2017-02-03T05:04:34.814Z,0
2017-02-03T05:05:43.808Z,0
2017-02-03T05:06:52.794Z,0
2017-02-03T05:08:31.489Z,0
2017-02-03T05:09:40.473Z,0
2017-02-03T05:10:49.463Z,0
2017-02-03T05:11:58.464Z,0
2017-02-03T05:13:07.457Z,0
2017-02-03T05:14:16.498Z,0
2017-02-03T05:15:25.691Z,0
2017-02-03T05:16:34.714Z,0
2017-02-03T05:17:43.699Z,0
2017-02-03T05:18:52.707Z,0
2017-02-03T05:20:01.729Z,0
2017-02-03T05:21:10.706Z,0
2017-02-03T05:22:19.708Z,0
2017-02-03T05:23:28.689Z,0
2017-02-03T05:24:37.688Z,0
2017-02-03T05:25:46.670Z,0
2017-02-03T05:26:55.667Z,0
2017-02-03T05:28:04.646Z,0
2017-02-03T05:29:13.638Z,0
2017-02-03T05:30:22.627Z,0
2017-02-03T05:31:31.631Z,0
2017-02-03T05:32:40.632Z,0
2017-02-03T05:33:49.616Z,0
2017-02-03T05:34:58.596Z,0
2017-02-03T05:36:07.590Z,0
2017-02-03T05:37:16.576Z,0
2017-02-03T05:38:25.570Z,0
2017-02-03T05:39:34.563Z,0
2017-02-03T05:40:43.558Z,0
2017-02-03T05:41:52.542Z,0
2017-02-03T05:43:01.962Z,0
2017-02-03T05:44:11.367Z,0
2017-02-03T05:45:20.382Z,0
2017-02-03T05:46:29.376Z,0
2017-02-03T05:47:38.362Z,0
2017-02-03T05:48:47.348Z,0
2017-02-03T05:49:56.336Z,0
2017-02-03T05:51:05.338Z,0
2017-02-03T05:52:14.327Z,0
2017-02-03T05:53:23.320Z,0
2017-02-03T05:54:32.299Z,0
2017-02-03T05:55:41.701Z,0
2017-02-03T05:56:50.683Z,0
2017-02-03T05:57:59.681Z,0
2017-02-03T05:59:08.670Z,0
2017-02-03T06:00:17.666Z,0
2017-02-03T06:01:27.066Z,0
2017-02-03T06:02:36.052Z,0
2017-02-03T06:03:45.048Z,0
2017-02-03T06:04:54.036Z,0
2017-02-03T06:06:03.017Z,0
2017-02-03T06:07:12.008Z,0
2017-02-03T06:08:20.993Z,0
2017-02-03T06:09:29.990Z,0
2017-02-03T06:10:39.015Z,0
2017-02-03T06:11:48.013Z,0
2017-02-03T06:12:56.991Z,0
2017-02-03T06:14:06.396Z,0
2017-02-03T06:15:15.386Z,0
2017-02-03T06:16:24.382Z,0
2017-02-03T06:17:33.381Z,0
2017-02-03T06:18:42.402Z,0
2017-02-03T06:19:51.396Z,0
2017-02-03T06:21:00.381Z,0
2017-02-03T06:22:09.375Z,0
2017-02-03T06:23:18.355Z,0
2017-02-03T06:24:27.346Z,0
2017-02-03T06:25:36.337Z,0
2017-02-03T06:26:45.327Z,0
2017-02-03T06:27:54.318Z,0
2017-02-03T06:29:03.307Z,0
2017-02-03T06:30:12.294Z,0
2017-02-03T06:31:21.318Z,4
2017-02-03T06:32:30.317Z,4
2017-02-03T06:33:39.305Z,4
2017-02-03T06:34:48.283Z,0
2017-02-03T06:35:57.289Z,0
2017-02-03T06:37:06.276Z,0
2017-02-03T06:38:15.276Z,4
2017-02-03T06:39:24.268Z,4
2017-02-03T06:40:33.267Z,4
2017-02-03T06:41:42.257Z,4
2017-02-03T06:42:51.252Z,4
2017-02-03T06:44:00.265Z,4
2017-02-03T06:45:09.266Z,4
2017-02-03T06:46:18.282Z,4
2017-02-03T06:47:27.270Z,4
2017-02-03T06:48:36.405Z,8
2017-02-03T06:49:45.768Z,8
2017-02-03T06:50:54.767Z,8
2017-02-03T06:52:03.749Z,8
2017-02-03T06:53:12.754Z,8
2017-02-03T06:54:22.156Z,8
2017-02-03T06:55:31.139Z,12
2017-02-03T06:56:40.121Z,8
2017-02-03T06:57:49.116Z,12
2017-02-03T06:58:58.504Z,12
2017-02-03T07:00:07.505Z,12
2017-02-03T07:01:16.914Z,16
2017-02-03T07:02:26.309Z,12
2017-02-03T07:03:35.336Z,16
2017-02-03T07:04:44.332Z,20
2017-02-03T07:05:53.314Z,20
2017-02-03T07:07:02.310Z,20
2017-02-03T07:08:11.296Z,28
2017-02-03T07:09:20.289Z,28
2017-02-03T07:10:29.286Z,28
2017-02-03T07:11:38.304Z,28
2017-02-03T07:12:47.299Z,32
2017-02-03T07:13:56.294Z,36
2017-02-03T07:15:05.275Z,36
2017-02-03T07:16:14.260Z,40
2017-02-03T07:17:23.297Z,40
2017-02-03T07:18:32.288Z,40
2017-02-03T07:19:41.273Z,44
2017-02-03T07:20:50.269Z,44
2017-02-03T07:21:59.263Z,44
2017-02-03T07:23:08.256Z,44
2017-02-03T07:24:17.289Z,48
2017-02-03T07:25:26.701Z,52
2017-02-03T07:26:35.693Z,52
2017-02-03T07:27:45.125Z,60
2017-02-03T07:28:54.120Z,56
2017-02-03T07:30:03.104Z,60
2017-02-03T07:31:12.100Z,64
2017-02-03T07:32:21.087Z,64
2017-02-03T07:33:30.091Z,72
2017-02-03T07:34:39.070Z,76
2017-02-03T07:35:48.481Z,76
2017-02-03T07:36:57.458Z,76
2017-02-03T07:38:06.455Z,80
2017-02-03T07:39:15.450Z,84
2017-02-03T07:40:24.437Z,96
2017-02-03T07:41:33.457Z,96
2017-02-03T07:42:42.458Z,96
2017-02-03T07:43:51.841Z,92
2017-02-03T07:45:00.828Z,100
2017-02-03T07:46:09.823Z,104
2017-02-03T07:47:18.816Z,108
2017-02-03T07:48:27.816Z,108
2017-02-03T07:49:36.799Z,108
2017-02-03T07:50:45.793Z,112
2017-02-03T07:51:54.779Z,112
2017-02-03T07:53:03.759Z,112
2017-02-03T07:54:12.749Z,116
2017-02-03T07:55:21.748Z,116
2017-02-03T07:56:30.740Z,124
2017-02-03T07:57:40.139Z,128
2017-02-03T07:58:49.127Z,120
2017-02-03T07:59:58.105Z,124
2017-02-03T08:01:07.106Z,128
2017-02-03T08:02:16.099Z,128
2017-02-03T08:03:25.089Z,148
2017-02-03T08:04:34.084Z,168
2017-02-03T08:05:43.070Z,160
2017-02-03T08:06:52.059Z,164
2017-02-03T08:08:01.053Z,168
2017-02-03T08:09:10.057Z,164
2017-02-03T08:10:19.047Z,184
2017-02-03T08:11:28.035Z,172
2017-02-03T08:12:37.030Z,176
2017-02-03T08:13:46.017Z,188
2017-02-03T08:14:55.017Z,164
2017-02-03T08:16:04.002Z,200
2017-02-03T08:17:13.516Z,184
2017-02-03T08:18:22.548Z,184
2017-02-03T08:19:31.535Z,188
2017-02-03T08:20:40.523Z,176
2017-02-03T08:21:49.509Z,172
2017-02-03T08:22:58.508Z,184
2017-02-03T08:24:07.527Z,172
2017-02-03T08:25:16.522Z,164
2017-02-03T08:26:25.516Z,184
2017-02-03T08:27:34.503Z,176
2017-02-03T08:28:43.516Z,176
2017-02-03T08:29:52.543Z,164
2017-02-03T08:31:01.543Z,192
2017-02-03T08:32:10.530Z,148
2017-02-03T08:33:19.524Z,136
2017-02-03T08:34:28.519Z,140
2017-02-03T08:35:37.941Z,164
2017-02-03T08:36:46.943Z,152
2017-02-03T08:37:55.936Z,140
2017-02-03T08:39:04.918Z,180
2017-02-03T08:40:13.917Z,168
2017-02-03T08:41:23.361Z,128
2017-02-03T08:42:32.367Z,144
2017-02-03T08:43:41.371Z,120
2017-02-03T08:44:50.764Z,148
2017-02-03T08:45:59.762Z,128
2017-02-03T08:47:08.811Z,140
2017-02-03T08:48:17.807Z,148
2017-02-03T08:49:26.794Z,164
2017-02-03T08:50:35.788Z,176
2017-02-03T08:51:44.788Z,192
2017-02-03T08:52:53.771Z,204
2017-02-03T08:54:02.766Z,168
2017-02-03T08:55:11.757Z,220
2017-02-03T08:56:20.751Z,228
2017-02-03T08:57:29.737Z,236
2017-02-03T08:58:38.735Z,224
2017-02-03T08:59:48.132Z,224
2017-02-03T09:00:57.132Z,224
2017-02-03T09:02:06.540Z,228
2017-02-03T09:03:15.535Z,304
2017-02-03T09:04:24.535Z,288
2017-02-03T09:05:33.527Z,264
2017-02-03T09:06:42.929Z,248
2017-02-03T09:07:51.924Z,244
2017-02-03T09:09:01.081Z,268
2017-02-03T09:10:10.068Z,252
2017-02-03T09:11:19.061Z,292
2017-02-03T09:12:28.048Z,324
2017-02-03T09:13:37.034Z,320
2017-02-03T09:14:46.065Z,320
2017-02-03T09:15:55.068Z,296
2017-02-03T09:17:04.056Z,320
2017-02-03T09:18:13.049Z,308
2017-02-03T09:19:22.036Z,324
2017-02-03T09:20:31.445Z,328
2017-02-03T09:21:40.448Z,336
2017-02-03T09:22:49.443Z,348
2017-02-03T09:23:58.421Z,340
2017-02-03T09:25:07.820Z,432
2017-02-03T09:26:16.809Z,412
2017-02-03T09:27:25.805Z,364
2017-02-03T09:28:34.796Z,352
2017-02-03T09:29:43.793Z,328
2017-02-03T09:30:53.204Z,332
2017-02-03T09:32:02.192Z,380
2017-02-03T09:33:11.599Z,324
2017-02-03T09:34:20.581Z,316
2017-02-03T09:35:29.568Z,304
2017-02-03T09:36:38.564Z,312
2017-02-03T09:37:47.560Z,304
2017-02-03T09:38:56.560Z,320
2017-02-03T09:40:05.976Z,320
2017-02-03T09:41:14.971Z,328
2017-02-03T09:42:24.372Z,340
2017-02-03T09:43:33.372Z,320
2017-02-03T09:44:42.363Z,352
2017-02-03T09:45:51.355Z,320
2017-02-03T09:47:00.348Z,320
2017-02-03T09:48:09.346Z,316
2017-02-03T09:49:18.329Z,308
2017-02-03T09:50:27.325Z,328
2017-02-03T09:51:36.320Z,316
2017-02-03T09:52:45.318Z,312
2017-02-03T09:53:54.338Z,308
2017-02-03T09:55:03.365Z,304
2017-02-03T09:56:12.376Z,316
2017-02-03T09:57:21.372Z,316
2017-02-03T09:58:30.405Z,296
2017-02-03T09:59:39.389Z,344
2017-02-03T10:00:48.792Z,312
2017-02-03T10:01:58.206Z,288
2017-02-03T10:03:07.198Z,332
2017-02-03T10:04:16.191Z,312
2017-02-03T10:05:25.587Z,296
2017-02-03T10:06:34.594Z,312
2017-02-03T10:07:43.656Z,288
2017-02-03T10:08:52.655Z,300
2017-02-03T10:10:01.641Z,304
2017-02-03T10:11:10.632Z,308
2017-02-03T10:12:19.624Z,328
2017-02-03T10:13:28.619Z,336
2017-02-03T10:14:37.601Z,332
2017-02-03T10:15:47.025Z,324
2017-02-03T10:16:56.039Z,316
2017-02-03T10:18:05.019Z,312
2017-02-03T10:19:14.022Z,308
2017-02-03T10:20:23.010Z,320
2017-02-03T10:21:32.009Z,344
2017-02-03T10:22:40.995Z,356
2017-02-03T10:23:49.985Z,356
2017-02-03T10:24:59.378Z,372
2017-02-03T10:26:08.395Z,368
2017-02-03T10:27:17.402Z,380
2017-02-03T10:28:26.422Z,368
2017-02-03T10:29:35.411Z,356
2017-02-03T10:30:44.830Z,356
2017-02-03T10:31:53.813Z,344
2017-02-03T10:33:02.809Z,336
2017-02-03T10:34:12.212Z,332
2017-02-03T10:35:21.202Z,340
2017-02-03T10:36:30.192Z,328
2017-02-03T10:37:39.599Z,320
2017-02-03T10:38:48.593Z,300
2017-02-03T10:39:57.581Z,292
2017-02-03T10:41:06.566Z,288
2017-02-03T10:42:15.557Z,300
2017-02-03T10:43:24.543Z,264
2017-02-03T10:44:33.542Z,228
2017-02-03T10:45:42.544Z,208
2017-02-03T10:46:51.530Z,200
2017-02-03T10:48:00.944Z,196
2017-02-03T10:49:09.922Z,192
2017-02-03T10:50:18.915Z,188
2017-02-03T10:51:27.938Z,192
2017-02-03T10:52:36.930Z,188
2017-02-03T10:53:45.918Z,180
2017-02-03T10:54:54.907Z,172
2017-02-03T10:56:03.898Z,172
2017-02-03T10:57:12.881Z,172
2017-02-03T10:58:21.876Z,160
2017-02-03T10:59:30.862Z,152
2017-02-03T11:00:39.838Z,144
2017-02-03T11:01:48.835Z,140
2017-02-03T11:02:57.823Z,168
2017-02-03T11:04:06.823Z,164
2017-02-03T11:05:15.810Z,148
2017-02-03T11:06:24.800Z,148
2017-02-03T11:07:33.783Z,148
2017-02-03T11:08:42.791Z,140
2017-02-03T11:09:52.894Z,140
2017-02-03T11:11:01.919Z,128
2017-02-03T11:12:11.008Z,120
2017-02-03T11:13:20.064Z,120
2017-02-03T11:14:29.136Z,120
2017-02-03T11:15:38.114Z,132
2017-02-03T11:16:47.131Z,140
2017-02-03T11:17:56.275Z,120
2017-02-03T11:19:05.274Z,104
2017-02-03T11:20:14.603Z,88
2017-02-03T11:21:24.091Z,84
2017-02-03T11:22:33.074Z,76
2017-02-03T11:23:42.096Z,72
2017-02-03T11:24:51.085Z,68
2017-02-03T11:26:00.074Z,72
2017-02-03T11:27:09.071Z,72
2017-02-03T11:28:18.060Z,80
2017-02-03T11:29:27.038Z,100
2017-02-03T11:30:36.030Z,112
2017-02-03T11:31:45.020Z,140
2017-02-03T11:32:54.021Z,156
2017-02-03T11:34:03.009Z,148
2017-02-03T11:35:11.989Z,140
2017-02-03T11:36:21.002Z,136
2017-02-03T11:37:29.991Z,124
2017-02-03T11:38:38.980Z,116
2017-02-03T11:39:47.974Z,124
2017-02-03T11:40:56.965Z,124
2017-02-03T11:42:05.957Z,136
2017-02-03T11:43:15.615Z,164
2017-02-03T11:44:25.496Z,208
2017-02-03T11:45:34.487Z,236
2017-02-03T11:46:43.482Z,240
2017-02-03T11:47:52.474Z,224
2017-02-03T11:49:01.482Z,216
2017-02-03T11:50:10.509Z,220
2017-02-03T11:51:19.910Z,248
2017-02-03T11:52:28.902Z,276
2017-02-03T11:53:37.915Z,316
2017-02-03T11:54:46.904Z,356
2017-02-03T11:55:55.903Z,380
2017-02-03T11:57:05.716Z,392
2017-02-03T11:58:14.744Z,404
2017-02-03T11:59:24.204Z,396
2017-02-03T12:00:33.651Z,412
2017-02-03T12:01:42.672Z,408
2017-02-03T12:02:51.657Z,400
2017-02-03T12:04:00.659Z,384
2017-02-03T12:05:09.641Z,368
2017-02-03T12:06:19.048Z,340
2017-02-03T12:07:28.041Z,312
2017-02-03T12:08:37.455Z,280
2017-02-03T12:09:46.442Z,288
2017-02-03T12:10:55.429Z,292
2017-02-03T12:12:04.434Z,340
2017-02-03T12:13:14.743Z,376
2017-02-03T12:14:24.176Z,324
2017-02-03T12:15:35.064Z,296
2017-02-03T12:16:44.067Z,304
2017-02-03T12:17:53.477Z,328
2017-02-03T12:19:03.505Z,304
2017-02-03T12:20:12.495Z,308
2017-02-03T12:21:21.732Z,308
2017-02-03T12:22:30.979Z,320
2017-02-03T12:23:41.429Z,300
2017-02-03T12:24:54.565Z,316
2017-02-03T12:26:06.981Z,348
2017-02-03T12:27:18.551Z,372
2017-02-03T12:28:27.585Z,360
2017-02-03T12:29:36.587Z,324
2017-02-03T12:30:45.575Z,284
2017-02-03T12:31:54.978Z,256
2017-02-03T12:33:03.959Z,240
2017-02-03T12:34:12.945Z,260
2017-02-03T12:35:21.940Z,280
2017-02-03T12:36:30.940Z,280
2017-02-03T12:37:39.977Z,288
2017-02-03T12:38:48.971Z,264
2017-02-03T12:39:57.960Z,232
2017-02-03T12:41:07.368Z,212
2017-02-03T12:42:16.792Z,220
2017-02-03T12:43:25.788Z,240
2017-02-03T12:44:34.782Z,256
2017-02-03T12:45:43.762Z,260
2017-02-03T12:46:52.740Z,236
2017-02-03T12:48:01.738Z,228
2017-02-03T12:49:10.739Z,248
2017-02-03T12:50:19.746Z,264
2017-02-03T12:51:28.730Z,256
2017-02-03T12:52:37.748Z,252
2017-02-03T12:53:46.737Z,252
2017-02-03T12:54:55.721Z,256
2017-02-03T12:56:04.719Z,272
2017-02-03T12:57:13.725Z,268
2017-02-03T12:58:22.711Z,236
2017-02-03T12:59:31.709Z,176
2017-02-03T13:00:40.696Z,188
2017-02-03T13:01:49.679Z,184
2017-02-03T13:02:58.672Z,176
2017-02-03T13:04:08.512Z,184
2017-02-03T13:05:17.491Z,172
2017-02-03T13:06:26.468Z,200
2017-02-03T13:07:35.720Z,212
2017-02-03T13:08:44.936Z,216
2017-02-03T13:09:53.938Z,208
2017-02-03T13:11:03.741Z,188
2017-02-03T13:12:12.739Z,176
2017-02-03T13:13:22.144Z,172
2017-02-03T13:14:31.139Z,164
2017-02-03T13:15:40.135Z,168
2017-02-03T13:16:49.122Z,164
2017-02-03T13:17:58.123Z,152
2017-02-03T13:19:07.110Z,144
2017-02-03T13:20:16.108Z,136
2017-02-03T13:21:25.094Z,120
2017-02-03T13:22:34.089Z,108
2017-02-03T13:23:43.073Z,100
2017-02-03T13:24:52.072Z,96
2017-02-03T13:26:01.067Z,88
2017-02-03T13:27:10.055Z,84
2017-02-03T13:28:19.047Z,88
2017-02-03T13:29:28.028Z,88
2017-02-03T13:30:37.010Z,88
2017-02-03T13:31:46.007Z,100
2017-02-03T13:32:54.999Z,100
2017-02-03T13:34:03.985Z,100
2017-02-03T13:35:12.969Z,108
2017-02-03T13:36:21.959Z,116
2017-02-03T13:37:30.954Z,116
2017-02-03T13:38:39.948Z,116
2017-02-03T13:39:48.930Z,116
2017-02-03T13:40:57.925Z,112
2017-02-03T13:42:06.910Z,112
2017-02-03T13:43:15.910Z,116
2017-02-03T13:44:24.894Z,112
2017-02-03T13:45:33.882Z,108
2017-02-03T13:46:42.873Z,116
2017-02-03T13:47:51.862Z,124
2017-02-03T13:49:00.859Z,128
2017-02-03T13:50:09.852Z,136
2017-02-03T13:51:18.838Z,156
2017-02-03T13:52:27.883Z,176
2017-02-03T13:53:36.877Z,188
2017-02-03T13:54:45.858Z,192
2017-02-03T13:55:54.839Z,200
2017-02-03T13:57:03.840Z,208
2017-02-03T13:58:12.858Z,216
2017-02-03T13:59:21.860Z,216
2017-02-03T14:00:30.840Z,216
2017-02-03T14:01:39.829Z,200
2017-02-03T14:02:48.808Z,208
2017-02-03T14:03:57.814Z,224
2017-02-03T14:05:06.804Z,228
2017-02-03T14:06:15.802Z,224
2017-02-03T14:07:24.777Z,204
2017-02-03T14:08:33.764Z,192
2017-02-03T14:09:42.759Z,204
2017-02-03T14:10:51.749Z,208
2017-02-03T14:12:01.154Z,212
2017-02-03T14:13:10.176Z,220
2017-02-03T14:14:19.153Z,232
2017-02-03T14:15:28.142Z,232
2017-02-03T14:16:37.135Z,240
2017-02-03T14:17:46.142Z,260
2017-02-03T14:18:55.123Z,240
2017-02-03T14:20:04.103Z,220
2017-02-03T14:21:13.105Z,196
2017-02-03T14:22:22.093Z,184
2017-02-03T14:23:31.091Z,180
2017-02-03T14:24:40.077Z,172
2017-02-03T14:25:49.061Z,168
2017-02-03T14:26:58.051Z,172
2017-02-03T14:28:07.452Z,176
2017-02-03T14:29:16.452Z,152
2017-02-03T14:30:25.440Z,156
2017-02-03T14:31:34.431Z,160
2017-02-03T14:32:43.416Z,164
2017-02-03T14:33:52.403Z,164
2017-02-03T14:35:01.393Z,168
2017-02-03T14:36:10.382Z,152
2017-02-03T14:37:19.782Z,148
2017-02-03T14:38:28.771Z,140
2017-02-03T14:39:37.759Z,132
2017-02-03T14:40:46.754Z,116
2017-02-03T14:41:55.748Z,112
2017-02-03T14:43:04.732Z,108
2017-02-03T14:44:13.725Z,100
2017-02-03T14:45:23.127Z,100
2017-02-03T14:46:32.522Z,92
2017-02-03T14:47:41.511Z,92
2017-02-03T14:48:50.510Z,84
2017-02-03T14:49:59.908Z,76
2017-02-03T14:51:08.908Z,76
2017-02-03T14:52:17.897Z,72
2017-02-03T14:53:27.300Z,72
2017-02-03T14:54:36.286Z,68
2017-02-03T14:55:45.287Z,64
2017-02-03T14:57:07.294Z,64
2017-02-03T14:58:17.116Z,64
2017-02-03T14:59:26.933Z,64
2017-02-03T15:00:35.923Z,60
2017-02-03T15:01:44.917Z,60
2017-02-03T15:02:53.899Z,56
2017-02-03T15:04:02.890Z,52
2017-02-03T15:05:11.871Z,48
2017-02-03T15:06:20.881Z,48
2017-02-03T15:07:29.874Z,40
2017-02-03T15:08:38.858Z,32
2017-02-03T15:09:47.848Z,28
2017-02-03T15:10:56.850Z,24
2017-02-03T15:12:05.838Z,20
2017-02-03T15:13:14.836Z,16
2017-02-03T15:14:24.245Z,16
2017-02-03T15:15:33.678Z,16
2017-02-03T15:16:42.672Z,16
2017-02-03T15:17:51.666Z,16
2017-02-03T15:19:00.663Z,16
2017-02-03T15:20:10.066Z,20
2017-02-03T15:21:19.050Z,28
2017-02-03T15:22:28.054Z,28
2017-02-03T15:23:37.055Z,24
2017-02-03T15:24:46.046Z,20
2017-02-03T15:25:55.030Z,20
2017-02-03T15:27:04.029Z,20
2017-02-03T15:28:13.026Z,20
2017-02-03T15:29:22.000Z,24
2017-02-03T15:30:30.988Z,20
2017-02-03T15:31:39.986Z,16
2017-02-03T15:32:48.970Z,20
2017-02-03T15:33:57.954Z,20
2017-02-03T15:35:06.945Z,16
2017-02-03T15:36:15.939Z,20
2017-02-03T15:37:24.937Z,20
2017-02-03T15:38:33.920Z,16
2017-02-03T15:39:42.912Z,16
2017-02-03T15:40:51.902Z,16
2017-02-03T15:42:00.896Z,16
2017-02-03T15:43:09.889Z,16
2017-02-03T15:44:18.885Z,12
2017-02-03T15:45:27.863Z,16
2017-02-03T15:46:36.863Z,12
2017-02-03T15:47:45.854Z,8
2017-02-03T15:48:54.843Z,12
2017-02-03T15:50:03.837Z,8
2017-02-03T15:51:12.824Z,8
2017-02-03T15:52:21.807Z,8
2017-02-03T15:53:30.790Z,8
2017-02-03T15:54:39.796Z,8
2017-02-03T15:55:48.794Z,8
2017-02-03T15:56:57.793Z,8
2017-02-03T15:58:07.184Z,4
2017-02-03T15:59:16.176Z,4
2017-02-03T16:00:25.171Z,8
2017-02-03T16:01:34.164Z,4
2017-02-03T16:02:43.144Z,4
2017-02-03T16:03:52.137Z,4
2017-02-03T16:05:01.130Z,4
2017-02-03T16:06:10.119Z,4
2017-02-03T16:07:19.126Z,4
2017-02-03T16:08:28.124Z,4
2017-02-03T16:09:37.102Z,0
2017-02-03T16:10:46.080Z,0
2017-02-03T16:11:55.077Z,0
2017-02-03T16:13:04.480Z,0
2017-02-03T16:14:13.470Z,0
2017-02-03T16:15:22.464Z,0
2017-02-03T16:16:31.875Z,0
2017-02-03T16:17:40.860Z,0
2017-02-03T16:18:49.856Z,0
2017-02-03T16:19:58.838Z,0
2017-02-03T16:21:07.835Z,0
2017-02-03T16:22:16.824Z,0
2017-02-03T16:23:25.843Z,0
2017-02-03T16:24:34.834Z,0
2017-02-03T16:25:43.829Z,0
2017-02-03T16:26:53.240Z,0
2017-02-03T16:28:02.232Z,0